createdAt,value
2022-11-13T03:59:25.972Z,20.57
2022-11-13T04:00:25.927Z,20.53
2022-11-13T04:01:25.997Z,20.58
2022-11-13T04:02:27.527Z,20.61
2022-11-13T04:03:27.500Z,20.57
2022-11-13T04:04:27.499Z,20.57
2022-11-13T04:05:27.514Z,20.58
2022-11-13T04:06:27.501Z,20.60
2022-11-13T04:07:27.565Z,20.60
2022-11-13T04:08:27.852Z,20.68
2022-11-13T04:09:27.530Z,20.63
2022-11-13T04:10:27.514Z,20.61
2022-11-13T04:11:26.853Z,20.66
2022-11-13T04:12:27.539Z,20.66
2022-11-13T04:13:26.839Z,20.60
2022-11-13T04:14:27.637Z,20.68
2022-11-13T04:15:27.642Z,20.75
2022-11-13T04:16:27.510Z,20.72
2022-11-13T04:17:27.555Z,20.72
2022-11-13T04:18:27.859Z,20.76
2022-11-13T04:19:27.731Z,20.78
2022-11-13T04:20:27.514Z,20.71
2022-11-13T04:21:27.512Z,20.76
2022-11-13T04:22:27.025Z,20.75
2022-11-13T04:23:27.511Z,20.78
2022-11-13T04:24:25.894Z,20.83
2022-11-13T04:25:27.025Z,20.85
2022-11-13T04:26:25.776Z,20.82
2022-11-13T04:27:25.804Z,20.85
2022-11-13T04:28:26.024Z,20.85
2022-11-13T04:29:25.785Z,20.83
2022-11-13T04:30:27.539Z,20.94
2022-11-13T04:31:25.862Z,20.93
2022-11-13T04:32:25.765Z,20.90
2022-11-13T04:33:26.752Z,20.91
2022-11-13T04:34:27.532Z,20.90
2022-11-13T04:35:27.544Z,20.96
2022-11-13T04:36:27.543Z,20.93
2022-11-13T04:37:27.555Z,20.96
2022-11-13T04:38:27.944Z,20.94
2022-11-13T04:39:27.532Z,20.91
2022-11-13T04:40:27.542Z,21.01
2022-11-13T04:41:27.548Z,20.94
2022-11-13T04:42:27.554Z,21.04
2022-11-13T04:43:27.542Z,20.93
2022-11-13T04:44:27.538Z,20.93
2022-11-13T04:45:27.589Z,21.00
2022-11-13T04:46:27.553Z,20.94
2022-11-13T04:47:27.650Z,20.93
2022-11-13T04:48:27.302Z,21.04
2022-11-13T04:49:27.526Z,20.98
2022-11-13T04:50:27.557Z,21.04
2022-11-13T04:51:25.701Z,21.00
2022-11-13T04:52:25.717Z,21.00
2022-11-13T04:53:27.070Z,21.00
2022-11-13T04:54:28.752Z,20.96
2022-11-13T04:55:25.670Z,20.88
2022-11-13T04:56:27.053Z,21.04
2022-11-13T04:57:25.683Z,20.91
2022-11-13T04:58:25.963Z,21.03
2022-11-13T04:59:25.662Z,20.98
2022-11-13T05:00:27.581Z,21.01
2022-11-13T05:01:25.664Z,21.01
2022-11-13T05:02:25.649Z,21.01
2022-11-13T05:03:25.750Z,21.01
2022-11-13T05:04:25.631Z,21.04
2022-11-13T05:05:27.064Z,21.01
2022-11-13T05:06:25.619Z,20.97
2022-11-13T05:07:27.547Z,21.01
2022-11-13T05:08:26.903Z,20.98
2022-11-13T05:09:27.582Z,21.00
2022-11-13T05:10:25.607Z,21.04
2022-11-13T05:11:27.561Z,21.00
2022-11-13T05:12:26.611Z,21.00
2022-11-13T05:13:26.595Z,21.03
2022-11-13T05:14:27.568Z,20.98
2022-11-13T05:15:26.592Z,20.98
2022-11-13T05:16:27.554Z,21.01
2022-11-13T05:17:26.604Z,21.04
2022-11-13T05:18:27.797Z,21.01
2022-11-13T05:19:27.665Z,21.01
2022-11-13T05:20:27.058Z,21.01
2022-11-13T05:21:27.091Z,21.08
2022-11-13T05:22:27.088Z,21.01
2022-11-13T05:23:27.074Z,21.00
2022-11-13T05:24:27.063Z,21.01
2022-11-13T05:25:27.085Z,21.06
2022-11-13T05:26:27.089Z,20.98
2022-11-13T05:27:27.068Z,21.06
2022-11-13T05:28:27.468Z,21.00
2022-11-13T05:29:26.525Z,21.00
2022-11-13T05:30:25.528Z,21.00
2022-11-13T05:31:26.627Z,21.09
2022-11-13T05:32:27.097Z,21.01
2022-11-13T05:33:26.527Z,20.98
2022-11-13T05:34:26.513Z,21.08
2022-11-13T05:35:26.632Z,21.06
2022-11-13T05:36:27.082Z,21.01
2022-11-13T05:37:27.099Z,21.00
2022-11-13T05:38:27.510Z,21.03
2022-11-13T05:39:25.518Z,21.00
2022-11-13T05:40:27.088Z,21.01
2022-11-13T05:41:27.092Z,20.96
2022-11-13T05:42:27.140Z,21.01
2022-11-13T05:43:25.483Z,21.00
2022-11-13T05:44:27.127Z,20.98
2022-11-13T05:45:27.083Z,21.06
2022-11-13T05:46:25.460Z,21.04
2022-11-13T05:47:27.100Z,21.03
2022-11-13T05:48:27.517Z,21.00
2022-11-13T05:49:27.085Z,21.03
2022-11-13T05:50:27.086Z,20.98
2022-11-13T05:51:27.183Z,21.04
2022-11-13T05:52:27.099Z,21.01
2022-11-13T05:53:27.107Z,21.00
2022-11-13T05:54:27.095Z,21.06
2022-11-13T05:55:27.103Z,21.06
2022-11-13T05:56:27.091Z,21.03
2022-11-13T05:57:27.087Z,21.04
2022-11-13T05:58:27.475Z,20.96
2022-11-13T05:59:27.096Z,21.00
2022-11-13T06:00:27.138Z,21.09
2022-11-13T06:01:27.182Z,21.08
2022-11-13T06:02:27.123Z,21.01
2022-11-13T06:03:25.399Z,21.01
2022-11-13T06:04:26.609Z,21.00
2022-11-13T06:05:25.393Z,21.03
2022-11-13T06:06:25.414Z,21.03
2022-11-13T06:07:26.499Z,21.06
2022-11-13T06:08:27.665Z,21.01
2022-11-13T06:09:27.114Z,21.01
2022-11-13T06:10:27.096Z,21.01
2022-11-13T06:11:27.108Z,21.03
2022-11-13T06:12:27.118Z,21.03
2022-11-13T06:13:27.122Z,21.01
2022-11-13T06:14:27.126Z,20.94
2022-11-13T06:15:27.122Z,21.08
2022-11-13T06:16:27.109Z,21.01
2022-11-13T06:17:27.105Z,20.98
2022-11-13T06:18:27.148Z,21.03
2022-11-13T06:19:27.164Z,21.13
2022-11-13T06:20:27.105Z,20.96
2022-11-13T06:21:27.128Z,21.01
2022-11-13T06:22:27.107Z,21.03
2022-11-13T06:23:27.248Z,21.00
2022-11-13T06:24:27.166Z,21.04
2022-11-13T06:25:26.319Z,21.03
2022-11-13T06:26:27.118Z,21.04
2022-11-13T06:27:27.139Z,21.01
2022-11-13T06:28:27.712Z,21.04
2022-11-13T06:29:27.114Z,21.04
2022-11-13T06:30:27.117Z,21.03
2022-11-13T06:31:27.145Z,21.01
2022-11-13T06:32:27.127Z,21.04
2022-11-13T06:33:26.279Z,21.08
2022-11-13T06:34:27.136Z,21.06
2022-11-13T06:35:25.278Z,21.04
2022-11-13T06:36:25.326Z,21.00
2022-11-13T06:37:29.564Z,21.04
2022-11-13T06:38:25.472Z,21.08
2022-11-13T06:39:26.410Z,21.09
2022-11-13T06:40:26.251Z,21.06
2022-11-13T06:41:27.141Z,21.01
2022-11-13T06:42:27.143Z,21.06
2022-11-13T06:43:26.243Z,21.01
2022-11-13T06:44:27.137Z,21.03
2022-11-13T06:45:26.227Z,21.15
2022-11-13T06:46:28.138Z,21.04
2022-11-13T06:47:27.140Z,21.12
2022-11-13T06:48:26.716Z,21.08
2022-11-13T06:49:27.159Z,21.08
2022-11-13T06:50:27.149Z,21.12
2022-11-13T06:51:27.136Z,21.04
2022-11-13T06:52:26.205Z,21.08
2022-11-13T06:53:27.174Z,21.11
2022-11-13T06:54:26.204Z,21.06
2022-11-13T06:55:26.310Z,21.08
2022-11-13T06:56:27.155Z,21.03
2022-11-13T06:57:27.140Z,21.01
2022-11-13T06:58:27.543Z,21.06
2022-11-13T06:59:27.164Z,21.06
2022-11-13T07:00:29.064Z,21.08
2022-11-13T07:01:27.369Z,21.01
2022-11-13T07:02:27.180Z,21.06
2022-11-13T07:03:27.176Z,21.08
2022-11-13T07:04:27.164Z,21.06
2022-11-13T07:05:27.158Z,21.08
2022-11-13T07:06:26.661Z,21.04
2022-11-13T07:07:25.242Z,21.08
2022-11-13T07:08:26.467Z,21.06
2022-11-13T07:09:26.144Z,21.09
2022-11-13T07:10:26.141Z,21.13
2022-11-13T07:11:26.766Z,21.04
2022-11-13T07:12:26.658Z,21.06
2022-11-13T07:13:26.720Z,21.04
2022-11-13T07:14:26.664Z,21.06
2022-11-13T07:15:26.653Z,21.11
2022-11-13T07:16:34.678Z,21.11
2022-11-13T07:17:26.651Z,21.08
2022-11-13T07:18:26.946Z,21.09
2022-11-13T07:19:26.690Z,21.11
2022-11-13T07:20:26.742Z,21.12
2022-11-13T07:21:26.691Z,21.12
2022-11-13T07:22:26.665Z,21.13
2022-11-13T07:23:26.671Z,21.15
2022-11-13T07:24:26.668Z,21.12
2022-11-13T07:25:26.662Z,21.12
2022-11-13T07:26:26.678Z,21.09
2022-11-13T07:27:26.764Z,21.18
2022-11-13T07:28:27.053Z,21.15
2022-11-13T07:29:26.667Z,21.15
2022-11-13T07:30:26.714Z,21.21
2022-11-13T07:31:26.774Z,21.25
2022-11-13T07:32:26.683Z,21.18
2022-11-13T07:33:26.673Z,21.22
2022-11-13T07:34:26.685Z,21.21
2022-11-13T07:35:26.695Z,21.18
2022-11-13T07:36:26.690Z,21.19
2022-11-13T07:37:26.677Z,21.19
2022-11-13T07:38:25.305Z,21.21
2022-11-13T07:39:26.183Z,21.25
2022-11-13T07:40:25.053Z,21.21
2022-11-13T07:41:25.027Z,21.18
2022-11-13T07:42:26.697Z,21.25
2022-11-13T07:43:26.785Z,21.25
2022-11-13T07:44:52.953Z,21.21
2022-11-13T07:45:26.687Z,21.23
2022-11-13T07:46:26.759Z,21.27
2022-11-13T07:47:26.706Z,21.25
2022-11-13T07:48:27.156Z,21.30
2022-11-13T07:49:26.723Z,21.25
2022-11-13T07:50:26.726Z,21.28
2022-11-13T07:51:26.699Z,21.30
2022-11-13T07:52:26.698Z,21.37
2022-11-13T07:53:26.688Z,21.33
2022-11-13T07:54:26.704Z,21.34
2022-11-13T07:55:26.717Z,21.33
2022-11-13T07:56:26.740Z,21.37
2022-11-13T07:57:26.683Z,21.34
2022-11-13T07:58:27.164Z,21.41
2022-11-13T07:59:26.052Z,21.33
2022-11-13T08:00:26.043Z,21.38
2022-11-13T08:01:25.025Z,21.52
2022-11-13T08:02:27.021Z,21.51
2022-11-13T08:03:26.219Z,21.49
2022-11-13T08:04:25.933Z,21.48
2022-11-13T08:05:25.933Z,21.56
2022-11-13T08:06:24.954Z,21.56
2022-11-13T08:07:26.803Z,21.55
2022-11-13T08:08:26.175Z,21.66
2022-11-13T08:09:25.916Z,21.61
2022-11-13T08:10:24.922Z,21.70
2022-11-13T08:11:24.928Z,21.70
2022-11-13T08:12:24.949Z,21.66
2022-11-13T08:13:26.237Z,21.68
2022-11-13T08:14:25.899Z,21.66
2022-11-13T08:15:26.015Z,21.73
2022-11-13T08:16:26.709Z,21.73
2022-11-13T08:17:24.902Z,21.74
2022-11-13T08:18:27.089Z,21.80
2022-11-13T08:19:25.895Z,21.77
2022-11-13T08:20:26.708Z,21.80
2022-11-13T08:21:26.749Z,21.77
2022-11-13T08:22:24.870Z,21.80
2022-11-13T08:23:26.724Z,21.86
2022-11-13T08:24:26.730Z,21.78
2022-11-13T08:25:25.877Z,21.89
2022-11-13T08:26:26.738Z,21.92
2022-11-13T08:27:26.738Z,21.85
2022-11-13T08:28:27.129Z,21.97
2022-11-13T08:29:26.724Z,21.96
2022-11-13T08:30:26.726Z,21.97
2022-11-13T08:31:26.822Z,21.96
2022-11-13T08:32:26.724Z,22.02
2022-11-13T08:33:26.749Z,22.00
2022-11-13T08:34:26.721Z,22.08
2022-11-13T08:35:29.420Z,22.12
2022-11-13T08:36:26.785Z,22.11
2022-11-13T08:37:26.721Z,22.09
2022-11-13T08:38:27.092Z,22.12
2022-11-13T08:39:26.755Z,22.11
2022-11-13T08:40:26.770Z,22.15
2022-11-13T08:41:26.725Z,22.14
2022-11-13T08:42:26.754Z,22.15
2022-11-13T08:43:26.741Z,22.23
2022-11-13T08:44:26.738Z,22.07
2022-11-13T08:45:26.748Z,22.12
2022-11-13T08:46:26.740Z,22.16
2022-11-13T08:47:29.436Z,22.11
2022-11-13T08:48:27.091Z,22.20
2022-11-13T08:49:26.781Z,22.18
2022-11-13T08:50:26.762Z,22.26
2022-11-13T08:51:25.790Z,22.26
2022-11-13T08:52:26.733Z,22.29
2022-11-13T08:53:26.776Z,22.29
2022-11-13T08:54:26.736Z,22.29
2022-11-13T08:55:26.795Z,22.29
2022-11-13T08:56:26.766Z,22.27
2022-11-13T08:57:26.755Z,22.34
2022-11-13T08:58:27.077Z,22.33
2022-11-13T08:59:26.765Z,22.31
2022-11-13T09:00:26.748Z,22.36
2022-11-13T09:01:26.753Z,22.36
2022-11-13T09:02:26.299Z,22.42
2022-11-13T09:03:26.374Z,22.33
2022-11-13T09:04:26.314Z,22.46
2022-11-13T09:05:26.258Z,22.48
2022-11-13T09:06:26.266Z,22.48
2022-11-13T09:07:27.626Z,22.39
2022-11-13T09:08:26.550Z,22.42
2022-11-13T09:09:26.251Z,22.42
2022-11-13T09:10:26.259Z,22.38
2022-11-13T09:11:26.268Z,22.44
2022-11-13T09:12:26.256Z,22.45
2022-11-13T09:13:26.258Z,22.45
2022-11-13T09:14:24.732Z,22.42
2022-11-13T09:15:25.776Z,22.42
2022-11-13T09:16:26.309Z,22.39
2022-11-13T09:17:26.303Z,22.46
2022-11-13T09:18:26.119Z,22.38
2022-11-13T09:19:26.414Z,22.45
2022-11-13T09:20:26.409Z,22.48
2022-11-13T09:21:26.313Z,22.45
2022-11-13T09:22:26.326Z,22.42
2022-11-13T09:23:24.692Z,22.52
2022-11-13T09:24:25.707Z,22.51
2022-11-13T09:25:25.776Z,22.46
2022-11-13T09:26:25.693Z,22.52
2022-11-13T09:27:24.693Z,22.57
2022-11-13T09:28:27.789Z,22.59
2022-11-13T09:29:25.691Z,22.66
2022-11-13T09:30:25.783Z,22.59
2022-11-13T09:31:24.685Z,22.61
2022-11-13T09:32:24.680Z,22.67
2022-11-13T09:33:25.818Z,22.70
2022-11-13T09:34:24.673Z,22.75
2022-11-13T09:35:25.917Z,22.79
2022-11-13T09:36:25.784Z,22.79
2022-11-13T09:37:24.660Z,22.78
2022-11-13T09:38:24.676Z,22.86
2022-11-13T09:39:24.658Z,22.92
2022-11-13T09:40:24.649Z,22.91
2022-11-13T09:41:25.814Z,22.97
2022-11-13T09:42:24.668Z,23.00
2022-11-13T09:43:24.641Z,23.01
2022-11-13T09:44:24.645Z,23.03
2022-11-13T09:45:24.653Z,23.12
2022-11-13T09:46:26.819Z,23.09
2022-11-13T09:47:24.658Z,23.12
2022-11-13T09:48:24.658Z,23.14
2022-11-13T09:49:26.307Z,23.15
2022-11-13T09:50:25.641Z,23.22
2022-11-13T09:51:26.453Z,23.26
2022-11-13T09:52:25.652Z,23.38
2022-11-13T09:53:26.332Z,23.29
2022-11-13T09:54:26.294Z,23.37
2022-11-13T09:55:26.318Z,23.40
2022-11-13T09:56:26.306Z,23.47
2022-11-13T09:57:26.694Z,23.56
2022-11-13T09:58:26.564Z,23.59
2022-11-13T09:59:26.378Z,23.60
2022-11-13T10:00:26.329Z,23.60
2022-11-13T10:01:26.456Z,23.63
2022-11-13T10:02:26.310Z,23.71
2022-11-13T10:13:37.088Z,23.94
2022-11-13T10:14:36.938Z,23.97
2022-11-13T10:15:36.947Z,23.94
2022-11-13T10:16:36.912Z,23.94
2022-11-13T10:17:36.908Z,24.00
2022-11-13T10:18:36.930Z,24.00
2022-11-13T10:19:36.917Z,24.07
2022-11-13T10:20:36.919Z,24.08
2022-11-13T10:21:36.954Z,24.03
2022-11-13T10:22:36.916Z,24.14
2022-11-13T10:23:36.916Z,24.18
2022-11-13T10:24:36.914Z,24.19
2022-11-13T10:25:36.917Z,24.17
2022-11-13T10:26:36.969Z,24.22
2022-11-13T10:27:36.999Z,24.18
2022-11-13T10:28:50.558Z,24.12
2022-11-13T10:29:37.027Z,24.15
2022-11-13T10:30:36.934Z,24.26
2022-11-13T10:31:36.449Z,24.21
2022-11-13T10:32:35.305Z,24.22
2022-11-13T10:33:35.286Z,24.29
2022-11-13T10:34:35.285Z,24.26
2022-11-13T10:35:35.305Z,24.26
2022-11-13T10:36:36.437Z,24.22
2022-11-13T10:37:35.291Z,24.22
2022-11-13T10:38:35.303Z,24.24
2022-11-13T10:39:35.286Z,24.21
2022-11-13T10:40:35.285Z,24.34
2022-11-13T10:41:37.473Z,24.22
2022-11-13T10:42:35.281Z,24.27
2022-11-13T10:43:35.286Z,24.24
2022-11-13T10:44:37.453Z,24.27
2022-11-13T10:45:36.379Z,24.22
2022-11-13T10:46:36.283Z,24.21
2022-11-13T10:48:02.372Z,24.24
2022-11-13T10:48:35.279Z,24.27
2022-11-13T10:49:36.962Z,24.21
2022-11-13T10:50:36.289Z,24.24
2022-11-13T10:51:35.298Z,24.24
2022-11-13T10:52:36.974Z,24.22
2022-11-13T10:53:35.275Z,24.24
2022-11-13T10:54:36.950Z,24.27
2022-11-13T10:55:36.264Z,24.26
2022-11-13T10:56:36.969Z,24.27
2022-11-13T10:57:35.262Z,24.32
2022-11-13T10:58:36.995Z,24.30
2022-11-13T10:59:36.468Z,24.34
2022-11-13T11:00:36.266Z,24.29
2022-11-13T11:01:35.398Z,24.33
2022-11-13T11:02:35.255Z,24.33
2022-11-13T11:03:36.999Z,24.32
2022-11-13T11:04:36.998Z,24.29
2022-11-13T11:05:37.029Z,24.29
2022-11-13T11:07:12.888Z,24.30
2022-11-13T11:07:37.014Z,24.44
2022-11-13T11:08:35.297Z,24.37
2022-11-13T11:09:36.471Z,24.39
2022-11-13T11:10:36.277Z,24.42
2022-11-13T11:11:36.250Z,24.40
2022-11-13T11:12:35.269Z,24.42
2022-11-13T11:13:36.978Z,24.48
2022-11-13T11:14:36.254Z,24.52
2022-11-13T11:15:36.247Z,24.48
2022-11-13T11:16:37.130Z,24.46
2022-11-13T11:17:36.964Z,24.55
2022-11-13T11:18:36.967Z,24.58
2022-11-13T11:19:36.995Z,24.61
2022-11-13T11:20:36.975Z,24.64
2022-11-13T11:21:36.975Z,24.67
2022-11-13T11:22:36.978Z,24.77
2022-11-13T11:23:36.991Z,24.71
2022-11-13T11:24:36.988Z,24.75
2022-11-13T11:25:36.984Z,24.77
2022-11-13T11:26:36.975Z,24.77
2022-11-13T11:27:36.989Z,24.85
2022-11-13T11:28:36.993Z,24.75
2022-11-13T11:29:36.993Z,24.87
2022-11-13T11:30:37.007Z,24.87
2022-11-13T11:31:36.992Z,24.89
2022-11-13T11:32:37.098Z,24.89
2022-11-13T11:33:36.495Z,24.92
2022-11-13T11:34:35.242Z,24.90
2022-11-13T11:35:35.252Z,24.97
2022-11-13T11:36:35.249Z,25.02
2022-11-13T11:37:35.240Z,25.04
2022-11-13T11:38:37.040Z,25.08
2022-11-13T11:39:35.234Z,25.07
2022-11-13T11:40:35.312Z,25.07
2022-11-13T11:41:35.236Z,25.14
2022-11-13T11:42:37.071Z,25.19
2022-11-13T11:43:35.244Z,25.24
2022-11-13T11:44:35.234Z,25.22
2022-11-13T11:45:35.282Z,25.32
2022-11-13T11:46:35.251Z,25.41
2022-11-13T11:47:37.017Z,25.52
2022-11-13T11:48:37.125Z,25.62
2022-11-13T11:49:37.004Z,25.75
2022-11-13T11:50:36.511Z,25.78
2022-11-13T11:51:37.006Z,25.79
2022-11-13T11:52:37.001Z,25.89
2022-11-13T11:53:37.015Z,25.91
2022-11-13T11:54:37.026Z,25.94
2022-11-13T11:55:37.025Z,26.09
2022-11-13T11:56:37.019Z,26.23
2022-11-13T11:57:37.029Z,26.30
2022-11-13T11:58:37.005Z,26.42
2022-11-13T11:59:37.007Z,26.52
2022-11-13T12:00:37.041Z,26.56
2022-11-13T12:01:37.012Z,26.67
2022-11-13T12:02:37.035Z,26.69
2022-11-13T12:03:35.234Z,26.90
2022-11-13T12:04:35.455Z,26.89
2022-11-13T12:05:37.599Z,27.08
2022-11-13T12:06:35.250Z,27.12
2022-11-13T12:07:35.277Z,27.30
2022-11-13T12:08:35.256Z,27.33
2022-11-13T12:09:35.244Z,27.51
2022-11-13T12:10:37.558Z,27.46
2022-11-13T12:11:35.256Z,27.57
2022-11-13T12:12:35.303Z,27.61
2022-11-13T12:13:35.257Z,27.74
2022-11-13T12:14:35.249Z,27.93
2022-11-13T12:15:36.125Z,27.96
2022-11-13T12:16:37.540Z,28.14
2022-11-13T12:17:35.259Z,28.23
2022-11-13T12:18:35.269Z,28.36
2022-11-13T12:19:35.269Z,28.55
2022-11-13T12:20:37.138Z,28.75
2022-11-13T12:21:36.544Z,28.76
2022-11-13T12:22:35.272Z,28.86
2022-11-13T12:23:37.045Z,29.06
2022-11-13T12:24:36.553Z,29.13
2022-11-13T12:25:37.045Z,29.18
2022-11-13T12:26:36.305Z,29.33
2022-11-13T12:27:35.283Z,29.51
2022-11-13T12:28:40.853Z,29.61
2022-11-13T12:29:35.313Z,29.63
2022-11-13T12:30:37.066Z,29.77
2022-11-13T12:31:35.311Z,29.92
2022-11-13T12:32:37.069Z,29.95
2022-11-13T12:33:37.056Z,30.14
2022-11-13T12:34:37.056Z,30.24
2022-11-13T12:35:37.096Z,30.34
2022-11-13T12:36:37.165Z,30.37
2022-11-13T12:37:37.087Z,30.48
2022-11-13T12:38:36.319Z,30.57
2022-11-13T12:39:36.320Z,30.69
2022-11-13T12:40:39.840Z,30.78
2022-11-13T12:41:37.067Z,30.78
2022-11-13T12:42:36.328Z,30.82
2022-11-13T12:43:36.355Z,30.97
2022-11-13T12:44:35.394Z,31.01
2022-11-13T12:45:36.337Z,31.10
2022-11-13T12:46:36.581Z,31.16
2022-11-13T12:47:35.381Z,31.22
2022-11-13T12:48:37.573Z,31.31
2022-11-13T12:49:36.577Z,31.37
2022-11-13T12:50:37.063Z,31.33
2022-11-13T12:51:37.091Z,31.44
2022-11-13T12:52:37.167Z,31.47
2022-11-13T12:53:37.086Z,31.62
2022-11-13T12:54:37.096Z,31.60
2022-11-13T12:55:37.071Z,31.65
2022-11-13T12:56:37.100Z,31.71
2022-11-13T12:57:37.068Z,31.71
2022-11-13T12:58:37.076Z,31.88
2022-11-13T12:59:37.187Z,31.93
2022-11-13T13:00:37.120Z,31.97
2022-11-13T13:01:35.448Z,31.97
2022-11-13T13:02:37.116Z,32.00
2022-11-13T13:03:36.423Z,32.10
2022-11-13T13:04:35.429Z,32.09
2022-11-13T13:05:37.671Z,32.09
2022-11-13T13:06:35.436Z,32.10
2022-11-13T13:07:36.620Z,32.17
2022-11-13T13:08:35.559Z,32.24
2022-11-13T13:09:35.479Z,32.25
2022-11-13T13:10:35.466Z,32.24
2022-11-13T13:11:35.460Z,32.28
2022-11-13T13:12:36.602Z,32.31
2022-11-13T13:13:36.602Z,32.32
2022-11-13T13:14:35.515Z,32.30
2022-11-13T13:15:35.475Z,32.31
2022-11-13T13:16:35.485Z,32.34
2022-11-13T13:17:36.604Z,32.39
2022-11-13T13:18:35.486Z,32.42
2022-11-13T13:19:35.487Z,32.49
2022-11-13T13:20:35.520Z,32.39
2022-11-13T13:21:35.509Z,32.50
2022-11-13T13:22:37.120Z,32.42
2022-11-13T13:23:37.217Z,32.47
2022-11-13T13:24:37.103Z,32.45
2022-11-13T13:25:37.143Z,32.50
2022-11-13T13:26:37.122Z,32.43
2022-11-13T13:27:37.164Z,32.43
2022-11-13T13:28:36.541Z,32.45
2022-11-13T13:29:35.533Z,32.43
2022-11-13T13:30:37.165Z,32.31
2022-11-13T13:31:37.133Z,32.24
2022-11-13T13:32:37.129Z,32.12
2022-11-13T13:33:37.120Z,32.01
2022-11-13T13:34:37.148Z,31.82
2022-11-13T13:35:36.630Z,31.82
2022-11-13T13:36:37.124Z,31.87
2022-11-13T13:37:37.123Z,31.72
2022-11-13T13:38:35.576Z,31.71
2022-11-13T13:39:37.279Z,31.72
2022-11-13T13:40:37.159Z,31.81
2022-11-13T13:41:36.591Z,31.75
2022-11-13T13:42:37.134Z,31.88
2022-11-13T13:43:37.201Z,31.80
2022-11-13T13:44:36.680Z,31.72
2022-11-13T13:45:36.648Z,31.70
2022-11-13T13:46:36.662Z,31.72
2022-11-13T13:47:35.614Z,31.78
2022-11-13T13:48:35.629Z,31.75
2022-11-13T13:49:35.624Z,31.77
2022-11-13T13:50:36.649Z,31.74
2022-11-13T13:51:35.630Z,31.65
2022-11-13T13:52:35.637Z,31.53
2022-11-13T13:53:35.644Z,31.52
2022-11-13T13:54:35.639Z,31.47
2022-11-13T13:55:37.273Z,31.45
2022-11-13T13:56:36.647Z,31.33
2022-11-13T13:57:35.679Z,31.37
2022-11-13T13:58:37.648Z,31.28
2022-11-13T13:59:37.667Z,31.23
2022-11-13T14:00:53.196Z,31.16
2022-11-13T14:01:36.812Z,31.03
2022-11-13T14:02:35.674Z,31.04
2022-11-13T14:03:37.748Z,30.94
2022-11-13T14:04:36.719Z,30.84
2022-11-13T14:05:37.715Z,30.82
2022-11-13T14:06:36.704Z,30.73
2022-11-13T14:07:37.650Z,30.62
2022-11-13T14:08:36.716Z,30.42
2022-11-13T14:09:37.654Z,30.34
2022-11-13T14:10:37.186Z,30.21
2022-11-13T14:11:37.776Z,30.07
2022-11-13T14:12:37.653Z,29.95
2022-11-13T14:13:36.708Z,29.94
2022-11-13T14:14:35.714Z,29.76
2022-11-13T14:15:38.257Z,29.58
2022-11-13T14:16:37.172Z,29.43
2022-11-13T14:17:35.726Z,29.28
2022-11-13T14:18:36.736Z,29.11
2022-11-13T14:19:36.731Z,28.94
2022-11-13T14:20:36.746Z,28.86
2022-11-13T14:21:37.189Z,28.76
2022-11-13T14:22:36.737Z,28.58
2022-11-13T14:23:35.733Z,28.43
2022-11-13T14:24:35.770Z,28.27
2022-11-13T14:25:35.738Z,28.17
2022-11-13T14:26:37.229Z,27.99
2022-11-13T14:27:37.780Z,27.87
2022-11-13T14:28:37.700Z,27.69
2022-11-13T14:29:37.705Z,27.66
2022-11-13T14:30:37.683Z,27.53
2022-11-13T14:31:37.689Z,27.46
2022-11-13T14:32:37.682Z,27.28
2022-11-13T14:33:37.708Z,27.16
2022-11-13T14:34:37.699Z,27.00
2022-11-13T14:35:37.683Z,26.90
2022-11-13T14:36:37.707Z,26.82
2022-11-13T14:37:35.805Z,26.64
2022-11-13T14:38:37.202Z,26.57
2022-11-13T14:39:37.700Z,26.54
2022-11-13T14:40:35.760Z,26.32
2022-11-13T14:41:35.787Z,26.34
2022-11-13T14:42:35.828Z,26.30
2022-11-13T14:43:35.864Z,26.09
2022-11-13T14:44:37.723Z,26.01
2022-11-13T14:45:35.779Z,25.99
2022-11-13T14:46:37.209Z,25.79
2022-11-13T14:47:35.768Z,25.79
2022-11-13T14:48:35.762Z,25.70
2022-11-13T14:49:35.809Z,25.64
2022-11-13T14:50:35.911Z,25.41
2022-11-13T14:51:37.237Z,25.32
2022-11-13T14:52:35.775Z,25.38
2022-11-13T14:53:35.758Z,25.29
2022-11-13T14:55:07.924Z,25.24
2022-11-13T14:55:35.757Z,25.17
2022-11-13T14:56:36.806Z,25.01
2022-11-13T14:57:37.720Z,25.04
2022-11-13T14:58:37.727Z,24.96
2022-11-13T14:59:37.820Z,24.87
2022-11-13T15:00:37.707Z,24.82
2022-11-13T15:01:36.755Z,24.75
2022-11-13T15:02:37.744Z,24.77
2022-11-13T15:03:37.797Z,24.69
2022-11-13T15:04:40.409Z,24.55
2022-11-13T15:05:37.717Z,24.48
2022-11-13T15:06:37.739Z,24.40
2022-11-13T15:07:37.715Z,24.40
2022-11-13T15:08:37.765Z,24.29
2022-11-13T15:09:37.714Z,24.22
2022-11-13T15:10:37.743Z,24.17
2022-11-13T15:11:37.734Z,24.21
2022-11-13T15:12:37.720Z,24.12
2022-11-13T15:13:37.735Z,24.09
2022-11-13T15:14:37.777Z,23.97
2022-11-13T15:15:35.857Z,23.97
2022-11-13T15:16:37.737Z,23.87
2022-11-13T15:17:35.760Z,23.96
2022-11-13T15:18:37.247Z,23.84
2022-11-13T15:19:36.765Z,23.75
2022-11-13T15:20:35.781Z,23.74
2022-11-13T15:21:37.742Z,23.71
2022-11-13T15:22:35.762Z,23.59
2022-11-13T15:23:37.332Z,23.60
2022-11-13T15:24:35.728Z,23.56
2022-11-13T15:25:36.742Z,23.48
2022-11-13T15:26:35.771Z,23.45
2022-11-13T15:27:40.220Z,23.37
2022-11-13T15:28:35.709Z,23.42
2022-11-13T15:29:36.727Z,23.34
2022-11-13T15:30:36.751Z,23.29
2022-11-13T15:31:36.912Z,23.28
2022-11-13T15:32:35.704Z,23.19
2022-11-13T15:33:37.235Z,23.18
2022-11-13T15:34:35.705Z,23.15
2022-11-13T15:35:37.267Z,23.09
2022-11-13T15:36:36.732Z,23.03
2022-11-13T15:37:37.765Z,23.12
2022-11-13T15:38:35.685Z,23.06
2022-11-13T15:39:37.270Z,23.01
2022-11-13T15:40:36.767Z,22.99
2022-11-13T15:41:37.329Z,22.91
2022-11-13T15:42:37.246Z,22.88
2022-11-13T15:43:37.265Z,22.89
2022-11-13T15:44:37.281Z,22.86
2022-11-13T15:45:42.796Z,22.85
2022-11-13T15:46:37.314Z,22.82
2022-11-13T15:47:37.374Z,22.78
2022-11-13T15:48:37.257Z,22.71
2022-11-13T15:49:37.610Z,22.69
2022-11-13T15:50:37.291Z,22.69
2022-11-13T15:51:36.786Z,22.60
2022-11-13T15:52:36.765Z,22.63
2022-11-13T15:53:35.659Z,22.57
2022-11-13T15:54:36.654Z,22.66
2022-11-13T15:55:36.765Z,22.55
2022-11-13T15:56:36.682Z,22.61
2022-11-13T15:57:36.658Z,22.59
2022-11-13T15:58:36.652Z,22.48
2022-11-13T15:59:37.270Z,22.52
2022-11-13T16:00:37.277Z,22.44
2022-11-13T16:12:47.872Z,22.24
2022-11-13T16:13:47.745Z,22.22
2022-11-13T16:14:47.750Z,22.14
2022-11-13T16:15:47.786Z,22.18
2022-11-13T16:16:47.749Z,22.16
2022-11-13T16:17:47.789Z,22.12
2022-11-13T16:18:47.748Z,22.08
2022-11-13T16:19:47.780Z,22.02
2022-11-13T16:20:47.779Z,22.09
2022-11-13T16:21:47.752Z,22.07
2022-11-13T16:22:47.769Z,22.05
2022-11-13T16:23:47.769Z,22.00
2022-11-13T16:24:47.759Z,21.93
2022-11-13T16:25:47.773Z,21.99
2022-11-13T16:26:47.777Z,22.02
2022-11-13T16:27:47.765Z,21.99
2022-11-13T16:29:12.287Z,21.94
2022-11-13T16:29:47.768Z,21.94
2022-11-13T16:30:46.085Z,21.92
2022-11-13T16:31:46.082Z,21.92
2022-11-13T16:32:47.284Z,21.94
2022-11-13T16:33:46.089Z,21.89
2022-11-13T16:34:46.075Z,21.92
2022-11-13T16:35:47.074Z,21.86
2022-11-13T16:36:46.831Z,21.86
2022-11-13T16:37:47.072Z,21.90
2022-11-13T16:38:46.084Z,21.80
2022-11-13T16:39:47.761Z,21.86
2022-11-13T16:40:48.272Z,21.82
2022-11-13T16:41:47.778Z,21.83
2022-11-13T16:42:47.137Z,21.82
2022-11-13T16:43:47.779Z,21.77
2022-11-13T16:44:47.172Z,21.82
2022-11-13T16:45:47.787Z,21.78
2022-11-13T16:46:46.036Z,21.77
2022-11-13T16:47:47.785Z,21.74
2022-11-13T16:48:47.779Z,21.83
2022-11-13T16:49:47.767Z,21.73
2022-11-13T16:50:47.770Z,21.76
2022-11-13T16:51:46.049Z,21.73
2022-11-13T16:52:47.301Z,21.71
2022-11-13T16:53:46.013Z,21.73
2022-11-13T16:54:47.296Z,21.71
2022-11-13T16:55:47.788Z,21.76
2022-11-13T16:56:45.990Z,21.74
2022-11-13T16:57:45.987Z,21.66
2022-11-13T16:58:47.790Z,21.71
2022-11-13T16:59:45.996Z,21.66
2022-11-13T17:00:47.394Z,21.64
2022-11-13T17:01:46.083Z,21.66
2022-11-13T17:02:47.798Z,21.67
2022-11-13T17:03:45.972Z,21.68
2022-11-13T17:04:45.972Z,21.66
2022-11-13T17:05:46.984Z,21.68
2022-11-13T17:06:47.819Z,21.61
2022-11-13T17:07:47.794Z,21.67
2022-11-13T17:08:47.815Z,21.62
2022-11-13T17:09:55.193Z,21.66
2022-11-13T17:10:47.787Z,21.61
2022-11-13T17:11:47.790Z,21.61
2022-11-13T17:12:47.809Z,21.62